createdAt,value
2022-08-28T00:00:15.922Z,95736.53
2022-08-28T00:02:43.279Z,95727.03
2022-08-28T00:05:11.561Z,95738.94
2022-08-28T00:07:43.229Z,95730.50
2022-08-28T00:10:12.420Z,95733.97
2022-08-28T00:12:39.803Z,95732.78
2022-08-28T00:15:13.069Z,95731.66
2022-08-28T00:17:40.321Z,95729.41
2022-08-28T00:20:10.236Z,95733.66
2022-08-28T00:22:38.407Z,95735.78
2022-08-28T00:25:07.430Z,95739.31
2022-08-28T00:27:52.670Z,95736.28
2022-08-28T00:30:28.398Z,95737.97
2022-08-28T00:32:58.668Z,95727.97
2022-08-28T00:35:25.800Z,95722.69
2022-08-28T00:37:53.023Z,95727.25
2022-08-28T00:40:28.583Z,95720.75
2022-08-28T00:42:57.737Z,95728.56
2022-08-28T00:45:24.823Z,95721.81
2022-08-28T00:47:51.578Z,95729.06
2022-08-28T00:50:22.643Z,95729.72
2022-08-28T00:52:52.019Z,95732.84
2022-08-28T00:55:22.430Z,95732.44
2022-08-28T00:57:58.983Z,95736.00
2022-08-28T01:00:33.804Z,95725.19
2022-08-28T01:03:01.946Z,95726.34
2022-08-28T01:05:29.924Z,95732.91
2022-08-28T01:07:58.867Z,95731.66
2022-08-28T01:10:28.196Z,95735.28
2022-08-28T01:12:56.274Z,95732.34
2022-08-28T01:15:28.385Z,95734.00
2022-08-28T01:18:03.535Z,95737.72
2022-08-28T01:20:35.702Z,95742.66
2022-08-28T01:23:02.242Z,95727.50
2022-08-28T01:25:33.843Z,95738.81
2022-08-28T01:28:04.337Z,95724.97
2022-08-28T01:30:32.389Z,95727.13
2022-08-28T01:32:59.381Z,95724.34
2022-08-28T01:35:31.554Z,95720.84
2022-08-28T01:37:58.448Z,95728.09
2022-08-28T01:40:36.196Z,95716.06
2022-08-28T01:43:21.722Z,95720.41
2022-08-28T01:45:52.847Z,95722.09
2022-08-28T01:48:20.915Z,95726.16
2022-08-28T01:50:48.169Z,95735.09
2022-08-28T01:53:16.937Z,95722.41
2022-08-28T01:55:44.270Z,95732.84
2022-08-28T01:58:12.634Z,95736.09
2022-08-28T02:00:40.080Z,95729.03
2022-08-28T02:03:07.179Z,95719.97
2022-08-28T02:05:34.615Z,95726.44
2022-08-28T02:08:02.804Z,95724.75
2022-08-28T02:10:31.459Z,95727.38
2022-08-28T02:12:59.163Z,95724.66
2022-08-28T02:15:27.988Z,95724.50
2022-08-28T02:17:56.111Z,95721.13
2022-08-28T02:20:24.354Z,95723.53
2022-08-28T02:22:51.900Z,95724.22
2022-08-28T02:25:19.251Z,95720.75
2022-08-28T02:27:46.150Z,95725.81
2022-08-28T02:30:15.373Z,95726.44
2022-08-28T02:32:42.018Z,95727.50
2022-08-28T02:35:14.207Z,95728.78
2022-08-28T02:37:44.210Z,95726.00
2022-08-28T02:40:16.445Z,95726.59
2022-08-28T02:42:43.630Z,95735.75
2022-08-28T02:45:12.310Z,95736.53
2022-08-28T02:47:40.003Z,95731.34
2022-08-28T02:50:08.450Z,95726.34
2022-08-28T02:52:37.386Z,95730.03
2022-08-28T02:55:06.026Z,95734.09
2022-08-28T02:57:32.811Z,95724.84
2022-08-28T02:59:59.839Z,95727.13
2022-08-28T03:02:27.087Z,95728.06
2022-08-28T03:04:55.435Z,95719.19
2022-08-28T03:07:22.711Z,95713.72
2022-08-28T03:09:50.552Z,95711.91
2022-08-28T03:12:17.244Z,95709.50
2022-08-28T03:14:43.898Z,95710.09
2022-08-28T03:17:10.611Z,95715.16
2022-08-28T03:19:37.351Z,95719.59
2022-08-28T03:22:04.099Z,95715.69
2022-08-28T03:24:30.811Z,95717.75
2022-08-28T03:26:58.262Z,95712.81
2022-08-28T03:29:24.870Z,95717.75
2022-08-28T03:31:51.663Z,95721.19
2022-08-28T03:34:18.431Z,95722.31
2022-08-28T03:36:45.123Z,95715.34
2022-08-28T03:39:11.951Z,95725.41
2022-08-28T03:41:38.592Z,95726.38
2022-08-28T03:44:05.292Z,95724.81
2022-08-28T03:46:33.604Z,95735.28
2022-08-28T03:49:02.521Z,95736.22
2022-08-28T03:51:31.942Z,95733.91
2022-08-28T03:53:59.871Z,95733.53
2022-08-28T03:56:28.665Z,95733.88
2022-08-28T03:58:58.287Z,95738.84
2022-08-28T04:01:25.277Z,95728.28
2022-08-28T04:03:51.898Z,95728.72
2022-08-28T04:06:19.829Z,95719.97
2022-08-28T04:08:47.912Z,95732.38
2022-08-28T04:11:14.801Z,95734.16
2022-08-28T04:13:42.106Z,95729.84
2022-08-28T04:16:12.233Z,95732.63
2022-08-28T04:18:41.389Z,95730.22
2022-08-28T04:21:19.689Z,95732.34
2022-08-28T04:23:47.275Z,95731.81
2022-08-28T04:26:17.231Z,95741.09
2022-08-28T04:28:44.946Z,95735.78
2022-08-28T04:31:11.899Z,95741.06
2022-08-28T04:33:38.843Z,95738.44
2022-08-28T04:36:08.753Z,95742.03
2022-08-28T04:38:36.819Z,95737.25
2022-08-28T04:41:07.602Z,95742.75
2022-08-28T04:43:34.821Z,95738.03
2022-08-28T04:46:10.084Z,95741.22
2022-08-28T04:48:37.198Z,95734.25
2022-08-28T04:51:09.335Z,95743.81
2022-08-28T04:53:38.511Z,95750.75
2022-08-28T04:56:08.032Z,95746.06
2022-08-28T04:58:35.219Z,95747.84
2022-08-28T05:01:12.766Z,95748.50
2022-08-28T05:03:40.052Z,95751.13
2022-08-28T05:06:07.435Z,95755.66
2022-08-28T05:08:34.591Z,95751.38
2022-08-28T05:11:33.867Z,95752.78
2022-08-28T05:14:07.441Z,95748.06
2022-08-28T05:16:39.885Z,95745.47
2022-08-28T05:19:06.541Z,95753.06
2022-08-28T05:21:33.162Z,95755.44
2022-08-28T05:24:00.090Z,95752.84
2022-08-28T05:26:28.447Z,95753.56
2022-08-28T05:28:58.390Z,95752.97
2022-08-28T05:31:26.596Z,95751.28
2022-08-28T05:33:53.688Z,95767.25
2022-08-28T05:36:22.879Z,95764.81
2022-08-28T05:38:51.360Z,95765.31
2022-08-28T05:41:26.480Z,95764.03
2022-08-28T05:43:54.073Z,95772.06
2022-08-28T05:46:21.349Z,95769.19
2022-08-28T05:48:49.347Z,95776.19
2022-08-28T05:51:20.220Z,95772.31
2022-08-28T05:53:49.970Z,95772.00
2022-08-28T05:56:24.253Z,95773.25
2022-08-28T05:58:51.085Z,95774.19
2022-08-28T06:01:23.565Z,95775.19
2022-08-28T06:03:58.737Z,95785.00
2022-08-28T06:06:27.543Z,95779.03
2022-08-28T06:08:59.455Z,95785.78
2022-08-28T06:11:30.996Z,95775.19
2022-08-28T06:14:02.759Z,95781.47
2022-08-28T06:16:31.665Z,95784.00
2022-08-28T06:19:00.609Z,95777.59
2022-08-28T06:21:27.992Z,95786.22
2022-08-28T06:23:55.118Z,95786.47
2022-08-28T06:26:22.112Z,95789.59
2022-08-28T06:31:24.436Z,95790.06
2022-08-28T06:33:54.154Z,95796.00
2022-08-28T06:36:21.132Z,95795.78
2022-08-28T06:38:47.724Z,95797.56
2022-08-28T06:41:18.360Z,95804.44
2022-08-28T06:43:44.976Z,95801.09
2022-08-28T06:46:11.639Z,95800.53
2022-08-28T06:48:38.302Z,95804.91
2022-08-28T06:51:09.441Z,95799.19
2022-08-28T06:53:38.189Z,95798.91
2022-08-28T06:56:18.450Z,95798.56
2022-08-28T06:58:56.015Z,95806.25
2022-08-28T07:01:32.942Z,95804.16
2022-08-28T07:04:03.945Z,95801.78
2022-08-28T07:06:34.271Z,95809.91
2022-08-28T07:09:01.334Z,95805.09
2022-08-28T07:11:31.352Z,95807.69
2022-08-28T07:13:58.581Z,95815.56
2022-08-28T07:16:29.351Z,95811.19
2022-08-28T07:18:56.198Z,95811.47
2022-08-28T07:21:23.144Z,95818.59
2022-08-28T07:23:50.239Z,95819.56
2022-08-28T07:26:20.269Z,95821.28
2022-08-28T07:28:47.419Z,95817.88
2022-08-28T07:31:17.708Z,95817.22
2022-08-28T07:33:45.163Z,95823.06
2022-08-28T07:36:29.915Z,95827.72
2022-08-28T07:38:59.161Z,95827.22
2022-08-28T07:41:28.791Z,95826.78
2022-08-28T07:44:15.006Z,95835.75
2022-08-28T07:46:41.773Z,95827.97
2022-08-28T07:49:08.812Z,95837.84
2022-08-28T07:51:35.916Z,95833.19
2022-08-28T07:54:04.044Z,95833.84
2022-08-28T07:56:31.187Z,95838.69
2022-08-28T07:58:59.058Z,95838.03
2022-08-28T08:01:28.883Z,95845.91
2022-08-28T08:04:01.592Z,95850.28
2022-08-28T08:06:34.136Z,95852.59
2022-08-28T08:09:02.341Z,95848.25
2022-08-28T08:11:32.218Z,95857.66
2022-08-28T08:14:05.611Z,95854.69
2022-08-28T08:16:35.605Z,95856.38
2022-08-28T08:19:02.736Z,95853.94
2022-08-28T08:21:30.490Z,95856.16
2022-08-28T08:23:58.474Z,95868.19
2022-08-28T08:26:28.169Z,95863.81
2022-08-28T08:28:55.698Z,95868.94
2022-08-28T08:31:28.405Z,95865.38
2022-08-28T08:33:57.483Z,95872.03
2022-08-28T08:36:26.072Z,95875.03
2022-08-28T08:39:00.060Z,95871.03
2022-08-28T08:41:48.286Z,95874.78
2022-08-28T08:44:21.531Z,95879.34
2022-08-28T08:47:00.131Z,95881.22
2022-08-28T08:52:20.584Z,95888.69
2022-08-28T08:55:01.634Z,95888.66
2022-08-28T08:57:30.788Z,95890.22
2022-08-28T08:59:57.803Z,95891.56
2022-08-28T09:02:31.671Z,95889.78
2022-08-28T09:05:09.338Z,95884.00
2022-08-28T09:07:41.997Z,95885.34
2022-08-28T09:10:12.467Z,95890.34
2022-08-28T09:13:17.107Z,95890.00
2022-08-28T09:15:50.073Z,95889.31
2022-08-28T09:18:31.932Z,95898.59
2022-08-28T09:21:00.319Z,95889.81
2022-08-28T09:23:29.931Z,95895.19
2022-08-28T09:26:01.650Z,95891.91
2022-08-28T09:28:35.722Z,95892.13
2022-08-28T09:31:05.303Z,95894.34
2022-08-28T09:33:41.608Z,95894.91
2022-08-28T09:36:42.762Z,95897.19
2022-08-28T09:39:18.348Z,95897.03
2022-08-28T09:42:30.513Z,95902.94
2022-08-28T09:45:13.809Z,95897.59
2022-08-28T09:47:58.594Z,95893.34
2022-08-28T09:50:27.753Z,95896.94
2022-08-28T09:52:57.742Z,95898.78
2022-08-28T09:55:35.988Z,95891.66
2022-08-28T09:58:04.047Z,95886.50
2022-08-28T10:00:35.902Z,95885.69
2022-08-28T10:03:41.523Z,95884.72
2022-08-28T10:06:37.843Z,95895.69
2022-08-28T10:09:19.188Z,95895.78
2022-08-28T10:12:11.206Z,95881.41
2022-08-28T10:15:04.030Z,95894.09
2022-08-28T10:18:06.710Z,95884.72
2022-08-28T10:20:54.334Z,95888.56
2022-08-28T10:23:27.466Z,95885.44
2022-08-28T10:26:16.063Z,95888.09
2022-08-28T10:28:56.790Z,95885.31
2022-08-28T10:31:42.998Z,95880.78
2022-08-28T10:34:36.966Z,95880.78
2022-08-28T10:37:14.267Z,95878.47
2022-08-28T10:40:00.584Z,95877.91
2022-08-28T10:42:38.936Z,95885.50
2022-08-28T10:45:12.465Z,95885.72
2022-08-28T10:47:41.950Z,95882.81
2022-08-28T10:50:16.407Z,95881.22
2022-08-28T10:52:47.981Z,95882.78
2022-08-28T10:55:23.467Z,95887.16
2022-08-28T10:58:24.478Z,95883.72
2022-08-28T11:01:01.194Z,95893.88
2022-08-28T11:03:35.542Z,95891.44
2022-08-28T11:06:12.952Z,95881.75
2022-08-28T11:08:40.211Z,95885.75
2022-08-28T11:11:13.371Z,95894.16
2022-08-28T11:13:43.303Z,95890.63
2022-08-28T11:16:21.204Z,95887.09
2022-08-28T11:19:15.534Z,95889.81
2022-08-28T11:21:52.699Z,95885.81
2022-08-28T11:24:33.414Z,95885.84
2022-08-28T11:27:20.035Z,95876.00
2022-08-28T11:30:01.400Z,95884.63
2022-08-28T11:32:30.894Z,95892.50
2022-08-28T11:35:29.548Z,95886.53
2022-08-28T11:37:57.800Z,95888.03
2022-08-28T11:40:27.339Z,95886.13
2022-08-28T11:43:17.369Z,95888.28
2022-08-28T11:45:47.409Z,95899.22
2022-08-28T11:48:36.294Z,95892.63
2022-08-28T11:51:18.129Z,95884.56
2022-08-28T11:53:52.232Z,95891.28
2022-08-28T11:56:31.966Z,95888.81
2022-08-28T11:59:35.500Z,95885.41
2022-08-28T12:02:39.435Z,95888.88
2022-08-28T12:05:32.465Z,95891.88
2022-08-28T12:08:02.457Z,95885.53
2022-08-28T12:10:30.620Z,95891.41
2022-08-28T12:13:00.178Z,95881.09
2022-08-28T12:15:29.793Z,95880.22
2022-08-28T12:18:03.990Z,95872.81
2022-08-28T12:20:33.791Z,95869.38
2022-08-28T12:23:23.441Z,95875.06
2022-08-28T12:25:58.759Z,95867.78
2022-08-28T12:28:29.321Z,95873.19
2022-08-28T12:31:05.130Z,95877.88
2022-08-28T12:33:41.766Z,95872.94
2022-08-28T12:36:15.801Z,95873.66
2022-08-28T12:38:51.194Z,95871.44
2022-08-28T12:41:18.747Z,95871.22
2022-08-28T12:43:50.597Z,95870.53
2022-08-28T12:46:24.548Z,95879.72
2022-08-28T12:48:53.068Z,95880.13
2022-08-28T12:51:25.524Z,95866.47
2022-08-28T12:53:55.560Z,95878.63
2022-08-28T12:56:25.451Z,95871.31
2022-08-28T12:58:52.421Z,95871.81
2022-08-28T13:01:25.218Z,95866.16
2022-08-28T13:03:59.005Z,95872.19
2022-08-28T13:06:32.713Z,95867.03
2022-08-28T13:09:06.768Z,95876.50
2022-08-28T13:11:49.185Z,95873.13
2022-08-28T13:14:43.666Z,95862.84
2022-08-28T13:17:12.513Z,95857.50
2022-08-28T13:19:40.070Z,95861.97
2022-08-28T13:22:29.001Z,95867.28
2022-08-28T13:25:00.658Z,95868.56
2022-08-28T13:27:28.175Z,95863.00
2022-08-28T13:30:00.799Z,95852.16
2022-08-28T13:32:29.195Z,95863.28
2022-08-28T13:35:10.707Z,95853.53
2022-08-28T13:38:00.068Z,95858.38
2022-08-28T13:43:22.338Z,95857.81
2022-08-28T13:45:49.786Z,95854.72
2022-08-28T13:48:19.608Z,95858.44
2022-08-28T13:50:49.670Z,95850.66
2022-08-28T13:53:20.043Z,95849.09
2022-08-28T13:55:49.171Z,95847.88
2022-08-28T13:58:16.175Z,95853.16
2022-08-28T14:00:48.373Z,95854.44
2022-08-28T14:03:34.326Z,95842.97
2022-08-28T14:06:02.627Z,95851.09
2022-08-28T14:08:29.728Z,95842.66
2022-08-28T14:10:56.599Z,95841.16
2022-08-28T14:13:26.851Z,95839.03
2022-08-28T14:15:55.459Z,95836.81
2022-08-28T14:18:23.503Z,95843.00
2022-08-28T14:20:50.139Z,95832.31
2022-08-28T14:23:17.303Z,95834.44
2022-08-28T14:25:45.858Z,95840.97
2022-08-28T14:28:14.320Z,95826.44
2022-08-28T14:30:42.698Z,95837.09
2022-08-28T14:33:09.608Z,95836.91
2022-08-28T14:35:40.869Z,95837.34
2022-08-28T14:38:08.848Z,95838.59
2022-08-28T14:40:40.518Z,95827.97
2022-08-28T14:43:09.944Z,95837.59
2022-08-28T14:45:48.378Z,95828.41
2022-08-28T14:48:17.559Z,95829.38
2022-08-28T14:50:46.343Z,95832.34
2022-08-28T14:53:13.943Z,95812.56
2022-08-28T14:55:46.048Z,95820.16
2022-08-28T14:58:13.804Z,95826.06
2022-08-28T15:00:42.865Z,95824.34
2022-08-28T15:03:10.156Z,95819.31
2022-08-28T15:05:36.822Z,95820.72
2022-08-28T15:08:06.818Z,95824.88
2022-08-28T15:10:34.284Z,95822.22
2022-08-28T15:13:00.925Z,95821.84
2022-08-28T15:15:27.563Z,95826.28
2022-08-28T15:17:54.335Z,95816.38
2022-08-28T15:20:21.971Z,95818.00
2022-08-28T15:22:48.605Z,95821.97
2022-08-28T15:25:15.318Z,95817.75
2022-08-28T15:27:41.930Z,95819.41
2022-08-28T15:30:09.024Z,95813.94
2022-08-28T15:32:35.607Z,95816.50
2022-08-28T15:35:02.210Z,95812.84
2022-08-28T15:37:29.427Z,95815.78
2022-08-28T15:40:17.192Z,95812.97
2022-08-28T15:42:44.281Z,95811.88
2022-08-28T15:45:12.178Z,95821.28
2022-08-28T15:47:38.782Z,95809.91
2022-08-28T15:50:06.302Z,95815.50
2022-08-28T15:52:33.106Z,95822.38
2022-08-28T15:54:59.716Z,95812.97
2022-08-28T15:57:26.311Z,95817.22
2022-08-28T15:59:52.903Z,95816.06
2022-08-28T16:02:22.368Z,95825.91
2022-08-28T16:04:49.388Z,95822.41
2022-08-28T16:07:16.677Z,95821.69
2022-08-28T16:09:43.311Z,95818.63
2022-08-28T16:12:09.978Z,95815.91
2022-08-28T16:14:36.624Z,95820.84
2022-08-28T16:17:05.933Z,95819.56
2022-08-28T16:19:37.661Z,95817.31
2022-08-28T16:22:04.288Z,95818.44
2022-08-28T16:24:30.935Z,95815.78
2022-08-28T16:26:57.511Z,95816.88
2022-08-28T16:29:24.128Z,95820.84
2022-08-28T16:31:50.769Z,95827.00
2022-08-28T16:34:19.602Z,95823.09
2022-08-28T16:36:48.150Z,95818.91
2022-08-28T16:39:14.991Z,95816.47
2022-08-28T16:41:42.135Z,95819.97
2022-08-28T16:44:09.088Z,95823.63
2022-08-28T16:46:35.774Z,95817.16
2022-08-28T16:49:03.074Z,95817.44
2022-08-28T16:51:29.862Z,95824.88
2022-08-28T16:53:57.029Z,95819.69
2022-08-28T16:56:24.419Z,95822.03
2022-08-28T16:58:52.995Z,95826.97
2022-08-28T17:01:24.162Z,95825.84
2022-08-28T17:03:54.532Z,95825.56
2022-08-28T17:06:24.632Z,95830.38
2022-08-28T17:08:56.388Z,95831.56
2022-08-28T17:11:25.813Z,95823.19
2022-08-28T17:13:53.579Z,95832.09
2022-08-28T17:16:21.078Z,95830.63
2022-08-28T17:18:52.013Z,95831.16
2022-08-28T17:21:39.044Z,95831.16
2022-08-28T17:24:06.828Z,95835.63
2022-08-28T17:26:33.499Z,95846.16
2022-08-28T17:29:00.163Z,95843.75
2022-08-28T17:31:26.939Z,95844.75
2022-08-28T17:33:53.625Z,95845.84
2022-08-28T17:36:33.080Z,95847.38
2022-08-28T17:39:08.030Z,95849.25
2022-08-28T17:41:34.863Z,95854.97
2022-08-28T17:44:02.700Z,95855.53
2022-08-28T17:46:30.945Z,95862.78
2022-08-28T17:49:01.258Z,95861.97
2022-08-28T17:51:43.070Z,95858.09
2022-08-28T17:54:15.237Z,95864.53
2022-08-28T17:56:42.283Z,95866.81
2022-08-28T17:59:10.101Z,95869.22
2022-08-28T18:01:37.829Z,95880.28
2022-08-28T18:04:05.294Z,95872.41
2022-08-28T18:06:32.497Z,95873.88
2022-08-28T18:08:59.438Z,95869.78
2022-08-28T18:11:26.383Z,95874.47
2022-08-28T18:13:53.034Z,95870.25
2022-08-28T18:16:19.951Z,95877.94
2022-08-28T18:18:46.618Z,95882.94
2022-08-28T18:21:14.320Z,95885.53
2022-08-28T18:23:41.005Z,95891.75
2022-08-28T18:26:08.142Z,95898.56
2022-08-28T18:28:35.000Z,95901.13
2022-08-28T18:31:02.642Z,95901.38
2022-08-28T18:33:29.829Z,95898.72
2022-08-28T18:35:56.713Z,95895.63
2022-08-28T18:38:27.758Z,95901.19
2022-08-28T18:40:55.447Z,95907.16
2022-08-28T18:43:22.614Z,95920.31
2022-08-28T18:45:49.925Z,95913.06
2022-08-28T18:48:16.815Z,95922.84
2022-08-28T18:50:46.454Z,95935.47
2022-08-28T18:53:17.499Z,95931.38
2022-08-28T18:55:45.733Z,95938.53
2022-08-28T18:58:15.429Z,95943.72
2022-08-28T19:00:42.374Z,95941.06
2022-08-28T19:03:09.253Z,95937.44
2022-08-28T19:05:37.438Z,95946.78
2022-08-28T19:08:04.587Z,95941.84
2022-08-28T19:10:34.490Z,95944.63
2022-08-28T19:13:01.945Z,95944.66
2022-08-28T19:15:29.183Z,95944.69
2022-08-28T19:17:56.069Z,95946.72
2022-08-28T19:20:23.039Z,95940.56
2022-08-28T19:22:49.720Z,95950.44
2022-08-28T19:25:22.355Z,95952.59
2022-08-28T19:27:56.254Z,95952.66
2022-08-28T19:30:25.587Z,95953.22
2022-08-28T19:32:52.228Z,95951.47
2022-08-28T19:35:19.141Z,95945.22
2022-08-28T19:37:46.091Z,95956.06
2022-08-28T19:40:13.581Z,95957.53
2022-08-28T19:42:40.242Z,95956.34
2022-08-28T19:45:08.560Z,95963.16
2022-08-28T19:47:35.551Z,95955.78
2022-08-28T19:50:04.512Z,95955.88
2022-08-28T19:52:31.149Z,95965.81
2022-08-28T19:55:01.015Z,95960.88
2022-08-28T19:57:27.606Z,95959.09
2022-08-28T19:59:54.188Z,95968.28
2022-08-28T20:02:22.778Z,95975.59
2022-08-28T20:04:50.255Z,95982.59
2022-08-28T20:07:16.958Z,95984.28
2022-08-28T20:09:43.796Z,95982.97
2022-08-28T20:12:10.471Z,95977.78
2022-08-28T20:14:41.372Z,95977.66
2022-08-28T20:17:08.161Z,95981.41
2022-08-28T20:19:34.743Z,95979.94
2022-08-28T20:22:01.319Z,95979.72
2022-08-28T20:24:30.264Z,95986.44
2022-08-28T20:27:02.919Z,95988.50
2022-08-28T20:29:29.996Z,95983.56
2022-08-28T20:31:56.760Z,95983.34
2022-08-28T20:34:23.500Z,95985.25
2022-08-28T20:36:50.249Z,95989.59
2022-08-28T20:39:17.616Z,95988.03
2022-08-28T20:41:45.975Z,95991.88
2022-08-28T20:44:15.513Z,95992.25
2022-08-28T20:46:42.927Z,95996.84
2022-08-28T20:49:14.526Z,95990.81
2022-08-28T20:51:58.839Z,95991.28
2022-08-28T20:54:30.111Z,95997.28
2022-08-28T20:56:59.687Z,95995.25
2022-08-28T20:59:34.481Z,95994.78
2022-08-28T21:02:12.718Z,95990.28
2022-08-28T21:04:41.042Z,95991.75
2022-08-28T21:07:08.094Z,95991.78
2022-08-28T21:10:04.230Z,95995.47
2022-08-28T21:12:22.383Z,95996.13
2022-08-28T21:14:52.731Z,95993.09
2022-08-28T21:17:28.958Z,96006.38
2022-08-28T21:20:00.724Z,95998.75
2022-08-28T21:22:28.956Z,96003.94
2022-08-28T21:24:55.619Z,96000.81
2022-08-28T21:27:22.350Z,95999.84
2022-08-28T21:29:48.940Z,96001.47
2022-08-28T21:32:16.696Z,96003.09
2022-08-28T21:34:43.795Z,96000.97
2022-08-28T21:37:10.359Z,96003.22
2022-08-28T21:39:37.063Z,96001.34
2022-08-28T21:42:03.772Z,96000.31
2022-08-28T21:44:30.377Z,95997.94
2022-08-28T21:46:58.820Z,95994.38
2022-08-28T21:49:25.541Z,96005.06
2022-08-28T21:51:52.159Z,96001.63
2022-08-28T21:54:19.621Z,95998.66
2022-08-28T21:56:46.422Z,95999.38
2022-08-28T21:59:15.230Z,96003.81
2022-08-28T22:01:42.026Z,96007.44
2022-08-28T22:04:09.243Z,96006.91
2022-08-28T22:06:36.035Z,95999.31
2022-08-28T22:09:05.002Z,96004.53
2022-08-28T22:11:32.798Z,96006.66
2022-08-28T22:13:59.978Z,96004.31
2022-08-28T22:16:27.958Z,96003.47
2022-08-28T22:18:54.813Z,96007.88
2022-08-28T22:21:43.117Z,96001.84
2022-08-28T22:26:37.640Z,96013.75
2022-08-28T22:29:04.281Z,96012.03
2022-08-28T22:31:30.907Z,96014.34
2022-08-28T22:33:57.952Z,96010.88
2022-08-28T22:36:24.653Z,96007.19
2022-08-28T22:38:56.376Z,96006.94
2022-08-28T22:41:23.323Z,96009.72
2022-08-28T22:43:51.630Z,96001.84
2022-08-28T22:46:20.599Z,96000.94
2022-08-28T22:48:48.003Z,96008.31
2022-08-28T22:51:18.287Z,96005.94
2022-08-28T22:53:45.045Z,96004.25
2022-08-28T22:56:12.724Z,96008.09
2022-08-28T22:58:39.719Z,96005.19
2022-08-28T23:01:11.652Z,96003.13
2022-08-28T23:03:39.645Z,96012.25
2022-08-28T23:06:06.506Z,96013.16
2022-08-28T23:08:34.128Z,96009.63
2022-08-28T23:11:01.293Z,96003.16
2022-08-28T23:13:29.710Z,96003.22
2022-08-28T23:15:56.293Z,95999.28
2022-08-28T23:18:22.894Z,96005.72
2022-08-28T23:20:50.744Z,95998.06
2022-08-28T23:23:19.190Z,96001.31
2022-08-28T23:25:46.285Z,95999.13
2022-08-28T23:28:13.083Z,95999.56
2022-08-28T23:30:41.308Z,95999.31
2022-08-28T23:33:21.623Z,95996.16
2022-08-28T23:35:52.254Z,95994.34
2022-08-28T23:38:19.343Z,95988.97
2022-08-28T23:40:46.167Z,95989.84
2022-08-28T23:43:12.776Z,95983.25
2022-08-28T23:45:42.463Z,95989.78
2022-08-28T23:48:09.353Z,95989.28
2022-08-28T23:50:36.502Z,95992.78
2022-08-28T23:53:04.656Z,95983.81
2022-08-28T23:55:33.381Z,95987.69
2022-08-28T23:58:00.383Z,95981.69
